Estación Meteorológica Peña el Pijo (Robertgarden) [ 10/16/18 14:21:14 CEST ]

Fecha Hora Presion(HPa) Temp (°C) Humedad % Rocio (°C) Viento ( m/s) Direccion Lluvia 1Hora(mm) Lluvia 24H(mm) LLuvia Total(mm)
2018-Oct-01 01:01:49 1011.700 11.1 72 6.3         356.38
2018-Oct-01 02:01:43 1011.800 11.6 74 7.1         356.38
2018-Oct-01 03:01:41 1011.500 11.9 74 7.4         356.38
2018-Oct-01 04:01:43 1011.000 11.6 74 7.1         356.38
2018-Oct-01 05:01:45 1010.500 10.8 77 6.9         356.38
2018-Oct-01 06:09:03 1010.300 10.9 79 7.4         356.38
2018-Oct-01 07:02:06 1010.300 11.2 81 8.1         356.38
2018-Oct-01 08:01:37 1010.600 11.1 81 8.0         356.38
2018-Oct-01 09:02:14 1010.900 12.3 80 9.0         356.38
2018-Oct-01 10:01:52 1011.100 16.6 77 12.5         356.38
2018-Oct-01 11:01:53 1011.300 25.3 49 13.8         356.38
2018-Oct-01 12:01:38 1011.300 26.5 37 10.6         356.38
2018-Oct-01 13:01:47 1011.200 25.4 36 9.2         356.38
2018-Oct-01 14:01:47 1010.800 25.8 32 7.8         356.38
2018-Oct-01 15:01:46 1010.200 27.6 30 8.5 1.1 NW     356.38
2018-Oct-01 16:01:44 1009.700 26.7 30 7.7         356.38
2018-Oct-01 17:01:42 1009.900 26.1 32 8.0         356.38
2018-Oct-01 18:01:38 1009.600 25.9 28 5.9         356.38
2018-Oct-01 19:01:43 1009.800 22.9 29 3.8         356.38
2018-Oct-01 20:01:47 1010.300 19.3 34 2.9         356.38
2018-Oct-01 21:01:29 1010.600 17.1 34 1.0         356.38
2018-Oct-01 22:01:46 1011.600 14.1 43 1.7         356.38
2018-Oct-01 23:01:48 1012.300 10.6 54 1.6         356.38

Temperatura Máxima:27°    Temperatura Mínima:10°
Presión Máxima:1012.300 Hpa    Presión Mínima:1009.600 Hpa


Volver